Aérodrome :
LOGIN :

S'inscrire | Disclaimer

   EN    FR    IT 

 










Légende :    VFR   VFR Marginal   IFR   IFR Intensif   IFR Très Intensif
Visi : 
Plafond : 
>= 8 km
>= 3000ft
5 à 8 km
1000 à 3000 ft
1500m à 5 km
500 à 1000 ft
800 à 1500m
200 à 500 ft
< 800m
< 200 ft
Symboles :   Orages  Brouillard  Fortes neiges  Fortes précipitations  Vent > 20 kt
SIGMETs :   Divers  Orages  Givrage  Turbulence  Onde Orograph.  Cendres Volcan.







- Altitude de l'aérodrome : 297 ft


EGVP - Middle Wallop

DERNIER METAR :
  • 281150Z 05007KT 9000 -SHRA BKN010 BKN015 BKN070 17/14 Q0997 GRN TEMPO 7000 GRN

METARs EXPIRÉS :
  • 281138Z 05007KT 8000 -SHRA BKN007 OVC015 17/15 Q0997 GRN TEMPO 7000 GRN
  • 281050Z 04007KT 7000 HZ BKN007 BKN016 17/15 Q0997 GRN BECMG 9000 GRN
  • 280950Z 03007KT 6000 HZ BKN006 BKN016 16/14 Q0997 YLO1 BECMG 8000 SCT007 GRN

TAF TAF EGVP
Valide du 28 à 12h jusqu'au 28 à 21h UTC


281052Z 2812/2821 02007KT 9999 BKN010
TEMPO 2812/2817 7000 -SHRA FEW010 BKN015
PROB40 2817/2821 BKN025
ATIS : +44 1980 674 142
Pas de NOTAMs connus pour ce terrain.



MET'MAP, la Météo Aéronautique d'un coup d'oeil ! - Copyright ORBIFLY Décembre 2007 - Disclaimer

ORBIFLY MET'MAP TEAM :

Programmation & Développement : Alexandra Zaïnal
Conception & Développement : Baudouin d'Aumeries
Co-Programmation & Développement : Marc-Olivier Méhu
Soutien technique & logistique : Manuel Goepfert

Contact : metmap@orbifly.com




SOURCES & CREDITS :

   NOAA